Time;durP1;ratioP1;P1;durP2;ratioP2;P2;SDS_P1;SDS_P2;PMS_P1;PMS_P2;Temp;Humidity;BMP_temperature;BMP_pressure;BME280_temperature;BME280_humidity;BME280_pressure;Samples;Min_cycle;Max_cycle;Signal;HPM_P1;HPM_P2
2022/11/24 00:01:22;;;;;;;;;;;;;;;5.30;100.00;100012.19;5047334;28;19925;-76
2022/11/24 00:03:52;;;;;;;;;;;;;;;5.30;100.00;100016.59;5032495;28;19928;-76
2022/11/24 00:06:17;;;;;;;;;;;;;;;5.29;100.00;100015.75;5028974;28;20015;-77
2022/11/24 00:08:44;;;;;;;;;;;;;;;5.30;100.00;100000.84;5047741;28;19929;-76
2022/11/24 00:11:11;;;;;;;;;;;;;;;5.29;100.00;100009.66;5048090;28;19978;-76
2022/11/24 00:13:39;;;;;;;;;;;;;;;5.29;100.00;100013.13;5032321;28;19929;-77
2022/11/24 00:16:04;;;;;;;;;;;;;;;5.28;100.00;100019.28;5032339;28;20414;-76
2022/11/24 00:18:30;;;;;;;;;;;;;;;5.26;100.00;100018.50;5047810;28;19924;-76
2022/11/24 00:20:55;;;;;;;;;;;;;;;5.25;100.00;100021.16;5031587;28;19932;-77
2022/11/24 00:23:21;;;;;;;;;;;;;;;5.22;100.00;100024.75;5016921;28;20386;-76
2022/11/24 00:25:46;;;;;;;;;;;;;;;5.19;100.00;100026.63;5028601;28;19935;-76
2022/11/24 00:28:11;;;;;;;;;;;;;;;5.19;100.00;100030.13;5048077;28;19929;-77
2022/11/24 00:30:37;;;;;;;;;;;;;;;5.18;100.00;100028.41;5047025;28;19982;-77
2022/11/24 00:33:05;;;;;;;;;;;;;;;5.16;100.00;100024.97;5047957;28;20303;-77
2022/11/24 00:35:30;;;;;;;;;;;;;;;5.16;100.00;100025.84;5028745;28;20988;-77
2022/11/24 00:37:56;;;;;;;;;;;;;;;5.17;100.00;100031.94;5047717;28;19982;-77
2022/11/24 00:40:21;;;;;;;;;;;;;;;5.16;100.00;100035.47;5047153;28;20319;-76
2022/11/24 00:42:47;;;;;;;;;;;;;;;5.16;100.00;100030.22;5037269;28;20031;-76
2022/11/24 00:45:12;;;;;;;;;;;;;;;5.21;100.00;100032.66;5031348;28;19933;-77
2022/11/24 00:47:37;;;;;;;;;;;;;;;5.23;100.00;100030.88;5031446;28;19932;-76
2022/11/24 00:50:03;;;;;;;;;;;;;;;5.25;100.00;100034.28;5037382;28;19928;-77
2022/11/24 00:52:28;;;;;;;;;;;;;;;5.29;100.00;100041.97;5046386;28;19955;-76
2022/11/24 00:54:54;;;;;;;;;;;;;;;5.35;100.00;100046.19;5047054;28;20013;-77
2022/11/24 00:57:19;;;;;;;;;;;;;;;5.44;100.00;100042.34;5047109;28;19929;-77
2022/11/24 00:59:47;;;;;;;;;;;;;;;5.53;100.00;100044.63;5020567;28;20481;-76
2022/11/24 01:02:12;;;;;;;;;;;;;;;5.64;100.00;100048.63;5037597;28;20307;-77
2022/11/24 01:04:38;;;;;;;;;;;;;;;5.72;100.00;100049.19;5031293;28;19935;-77
2022/11/24 01:07:04;;;;;;;;;;;;;;;5.78;100.00;100062.09;5043911;28;19936;-77
2022/11/24 01:09:29;;;;;;;;;;;;;;;5.81;100.00;100061.09;5026909;28;19967;-77
2022/11/24 01:12:01;;;;;;;;;;;;;;;5.80;100.00;100064.66;5046549;28;19948;-77
2022/11/24 01:14:26;;;;;;;;;;;;;;;5.81;100.00;100064.59;5045933;28;20323;-77
2022/11/24 01:16:52;;;;;;;;;;;;;;;5.80;100.00;100073.41;5061447;28;21419;-77
2022/11/24 01:19:18;;;;;;;;;;;;;;;5.81;100.00;100079.50;5046948;28;19959;-77
2022/11/24 01:21:43;;;;;;;;;;;;;;;5.83;100.00;100075.91;5020734;28;19935;-76
2022/11/24 01:24:09;;;;;;;;;;;;;;;5.85;100.00;100087.19;5046908;28;20027;-77
2022/11/24 01:26:34;;;;;;;;;;;;;;;5.84;100.00;100085.50;5027670;28;19933;-77
2022/11/24 01:29:00;;;;;;;;;;;;;;;5.84;100.00;100096.00;5045892;28;19932;-76
2022/11/24 01:31:25;;;;;;;;;;;;;;;5.83;100.00;100090.81;5045920;28;20047;-77
2022/11/24 01:33:51;;;;;;;;;;;;;;;5.82;100.00;100099.59;5032721;28;20272;-77
2022/11/24 01:36:16;;;;;;;;;;;;;;;5.80;100.00;100104.06;5026450;28;19928;-77
2022/11/24 01:38:41;;;;;;;;;;;;;;;5.80;100.00;100118.06;5032160;28;19990;-77
2022/11/24 01:41:09;;;;;;;;;;;;;;;5.76;100.00;100111.19;5013871;28;19929;-77
2022/11/24 01:43:34;;;;;;;;;;;;;;;5.79;100.00;100116.34;5026908;28;20294;-77
2022/11/24 01:46:09;;;;;;;;;;;;;;;5.81;100.00;100118.91;5035988;28;19928;-76
2022/11/24 01:48:37;;;;;;;;;;;;;;;5.88;100.00;100116.91;5046461;28;19928;-77
2022/11/24 01:51:07;;;;;;;;;;;;;;;5.92;100.00;100118.50;5045713;28;19925;-77
2022/11/24 01:53:32;;;;;;;;;;;;;;;5.96;100.00;100122.72;5045640;28;19928;-77
2022/11/24 01:55:58;;;;;;;;;;;;;;;5.97;100.00;100111.31;5016278;28;19924;-77
2022/11/24 01:58:25;;;;;;;;;;;;;;;6.00;100.00;100115.59;5029776;28;19925;-77
2022/11/24 02:00:50;;;;;;;;;;;;;;;6.07;100.00;100114.47;5045351;28;20437;-77
2022/11/24 02:03:17;;;;;;;;;;;;;;;6.11;100.00;100109.03;5029943;28;19971;-77
2022/11/24 02:05:48;;;;;;;;;;;;;;;6.15;100.00;100108.94;5044964;28;19928;-77
2022/11/24 02:08:16;;;;;;;;;;;;;;;6.14;100.00;100108.06;5031948;28;20779;-77
2022/11/24 02:10:41;;;;;;;;;;;;;;;6.13;100.00;100114.25;5044712;28;19920;-76
2022/11/24 02:13:07;;;;;;;;;;;;;;;6.10;100.00;100120.47;5029380;28;20013;-77
2022/11/24 02:15:33;;;;;;;;;;;;;;;6.07;100.00;100128.47;5025060;28;20023;-77
2022/11/24 02:17:58;;;;;;;;;;;;;;;6.03;100.00;100139.16;5031163;28;20437;-77
2022/11/24 02:20:23;;;;;;;;;;;;;;;5.98;100.00;100141.91;5044993;28;19972;-77
2022/11/24 02:22:49;;;;;;;;;;;;;;;5.93;100.00;100143.84;5045529;28;19932;-77
2022/11/24 02:25:26;;;;;;;;;;;;;;;5.88;100.00;100148.44;5042948;28;21419;-77
2022/11/24 02:27:52;;;;;;;;;;;;;;;5.82;100.00;100153.00;5038491;28;19933;-77
2022/11/24 02:30:17;;;;;;;;;;;;;;;5.80;100.00;100148.72;5041382;28;20033;-77
2022/11/24 02:32:43;;;;;;;;;;;;;;;5.74;100.00;100157.69;5045094;28;20025;-77
2022/11/24 02:35:09;;;;;;;;;;;;;;;5.72;100.00;100164.75;5045001;28;19983;-77
2022/11/24 02:37:34;;;;;;;;;;;;;;;5.69;100.00;100151.75;5028981;28;19929;-77
2022/11/24 02:40:00;;;;;;;;;;;;;;;5.66;100.00;100151.88;5044321;28;19933;-77
2022/11/24 02:42:25;;;;;;;;;;;;;;;5.62;100.00;100151.09;5014931;28;19983;-77
2022/11/24 02:44:52;;;;;;;;;;;;;;;5.60;100.00;100158.16;5030885;28;19928;-77
2022/11/24 02:47:17;;;;;;;;;;;;;;;5.57;100.00;100166.19;5028925;28;20394;-77
2022/11/24 02:49:43;;;;;;;;;;;;;;;5.54;100.00;100167.13;5044687;28;19929;-77
2022/11/24 02:52:08;;;;;;;;;;;;;;;5.52;100.00;100168.97;5058955;28;19929;-77
2022/11/24 02:54:33;;;;;;;;;;;;;;;5.49;100.00;100174.31;5041676;28;19936;-77
2022/11/24 02:56:59;;;;;;;;;;;;;;;5.47;100.00;100168.25;5045334;28;19929;-77
2022/11/24 02:59:24;;;;;;;;;;;;;;;5.46;100.00;100177.06;5029256;28;20367;-77
2022/11/24 03:01:50;;;;;;;;;;;;;;;5.44;100.00;100179.72;5029379;28;19970;-77
2022/11/24 03:04:15;;;;;;;;;;;;;;;5.44;100.00;100176.22;5044384;28;19928;-77
2022/11/24 03:06:42;;;;;;;;;;;;;;;5.43;100.00;100185.03;5028955;28;19964;-77
2022/11/24 03:09:07;;;;;;;;;;;;;;;5.41;100.00;100179.81;5043967;28;19968;-77
2022/11/24 03:11:33;;;;;;;;;;;;;;;5.42;100.00;100188.56;5044731;28;20529;-77
2022/11/24 03:13:58;;;;;;;;;;;;;;;5.40;100.00;100183.34;5044010;28;19994;-77
2022/11/24 03:16:23;;;;;;;;;;;;;;;5.40;100.00;100185.16;5023902;28;19987;-77
2022/11/24 03:18:52;;;;;;;;;;;;;;;5.38;100.00;100182.56;5027853;28;19971;-77
2022/11/24 03:21:17;;;;;;;;;;;;;;;5.40;100.00;100190.41;5028354;28;19928;-77
2022/11/24 03:23:43;;;;;;;;;;;;;;;5.39;100.00;100194.78;5058111;28;21853;-77
2022/11/24 03:26:08;;;;;;;;;;;;;;;5.39;100.00;100204.44;5041726;28;19933;-77
2022/11/24 03:28:34;;;;;;;;;;;;;;;5.43;100.00;100211.28;5024975;28;20027;-77
2022/11/24 03:30:59;;;;;;;;;;;;;;;5.47;100.00;100209.41;5041952;28;21548;-77
2022/11/24 03:33:25;;;;;;;;;;;;;;;5.51;100.00;100209.25;5044365;28;19939;-77
2022/11/24 03:35:50;;;;;;;;;;;;;;;5.55;100.00;100208.25;5028333;28;19924;-77
2022/11/24 03:38:15;;;;;;;;;;;;;;;5.60;100.00;100208.06;5044117;28;19939;-77
2022/11/24 03:40:41;;;;;;;;;;;;;;;5.64;100.00;100211.44;5044671;28;19932;-77
2022/11/24 03:43:06;;;;;;;;;;;;;;;5.65;100.00;100214.03;5028226;28;19932;-77
2022/11/24 03:45:32;;;;;;;;;;;;;;;5.67;100.00;100216.59;5044345;28;19975;-77
2022/11/24 03:47:57;;;;;;;;;;;;;;;5.68;100.00;100226.19;5027904;28;20113;-77
2022/11/24 03:50:23;;;;;;;;;;;;;;;5.68;100.00;100216.53;5043518;28;20330;-76
2022/11/24 03:52:48;;;;;;;;;;;;;;;5.70;100.00;100219.13;5024709;28;20010;-77
2022/11/24 03:55:14;;;;;;;;;;;;;;;5.71;100.00;100220.81;5040914;28;19947;-77
2022/11/24 03:57:39;;;;;;;;;;;;;;;5.74;100.00;100236.50;5041035;28;19954;-77
2022/11/24 04:00:05;;;;;;;;;;;;;;;5.74;100.00;100241.75;5024943;28;20047;-76
2022/11/24 04:02:31;;;;;;;;;;;;;;;5.79;100.00;100241.59;5017761;28;19946;-77
2022/11/24 04:04:56;;;;;;;;;;;;;;;5.80;100.00;100240.66;5043083;28;19928;-77
2022/11/24 04:07:21;;;;;;;;;;;;;;;5.80;100.00;100236.28;5043658;28;20021;-76
2022/11/24 04:09:47;;;;;;;;;;;;;;;5.81;100.00;100243.25;5040644;28;19962;-77
2022/11/24 04:14:56;;;;;;;;;;;;;;;5.84;100.00;100237.03;5043413;28;19946;-77
2022/11/24 04:17:22;;;;;;;;;;;;;;;5.83;100.00;100240.56;5033933;28;19929;-77
2022/11/24 04:19:47;;;;;;;;;;;;;;;5.82;100.00;100241.47;5042636;28;19932;-77
2022/11/24 04:22:13;;;;;;;;;;;;;;;5.81;100.00;100238.00;5058107;28;19932;-77
2022/11/24 04:24:38;;;;;;;;;;;;;;;5.80;100.00;100241.53;5043705;28;19932;-76
2022/11/24 04:27:04;;;;;;;;;;;;;;;5.78;100.00;100238.09;5043041;28;19933;-77
2022/11/24 04:29:31;;;;;;;;;;;;;;;5.77;100.00;100246.03;5027854;28;20311;-77
2022/11/24 04:31:57;;;;;;;;;;;;;;;5.75;100.00;100261.84;5043588;28;20590;-77
2022/11/24 04:34:22;;;;;;;;;;;;;;;5.74;100.00;100247.00;5045073;28;19993;-77
2022/11/24 04:36:47;;;;;;;;;;;;;;;5.70;100.00;100262.00;5028089;28;21462;-77
2022/11/24 04:39:13;;;;;;;;;;;;;;;5.67;100.00;100256.84;5017003;28;19937;-77
2022/11/24 04:41:38;;;;;;;;;;;;;;;5.65;100.00;100265.69;5046413;28;19932;-77
2022/11/24 04:44:04;;;;;;;;;;;;;;;5.64;100.00;100266.59;5047471;28;19932;-77
2022/11/24 04:46:30;;;;;;;;;;;;;;;5.62;100.00;100264.00;5061225;28;20334;-77
2022/11/24 04:48:55;;;;;;;;;;;;;;;5.61;100.00;100266.72;5046326;28;19932;-77
2022/11/24 04:51:20;;;;;;;;;;;;;;;5.58;100.00;100260.63;5033940;28;19937;-77
2022/11/24 04:53:47;;;;;;;;;;;;;;;5.58;100.00;100265.88;5031214;28;20296;-77
2022/11/24 04:56:12;;;;;;;;;;;;;;;5.56;100.00;100269.50;5033041;28;20023;-77
2022/11/24 04:58:37;;;;;;;;;;;;;;;5.56;100.00;100278.22;5046512;28;19929;-77
2022/11/24 05:01:05;;;;;;;;;;;;;;;5.55;100.00;100284.38;5046919;28;19929;-77
2022/11/24 05:03:30;;;;;;;;;;;;;;;5.57;100.00;100287.81;5026905;28;19931;-77
2022/11/24 05:05:57;;;;;;;;;;;;;;;5.58;100.00;100288.69;5046790;28;19929;-77
2022/11/24 05:08:22;;;;;;;;;;;;;;;5.56;100.00;100293.97;5046168;28;19952;-77
2022/11/24 05:10:48;;;;;;;;;;;;;;;5.56;100.00;100295.75;5045893;28;20383;-77
2022/11/24 05:13:13;;;;;;;;;;;;;;;5.54;100.00;100297.56;5046261;28;19975;-77
2022/11/24 05:15:39;;;;;;;;;;;;;;;5.53;100.00;100303.72;5046183;28;19960;-77
2022/11/24 05:18:05;;;;;;;;;;;;;;;5.53;100.00;100299.34;5033284;28;20273;-77
2022/11/24 05:20:31;;;;;;;;;;;;;;;5.51;100.00;100303.78;5030423;28;20019;-77
2022/11/24 05:23:00;;;;;;;;;;;;;;;5.51;100.00;100303.78;5030772;28;19924;-77
2022/11/24 05:25:25;;;;;;;;;;;;;;;5.51;100.00;100321.31;5027204;28;20053;-77
2022/11/24 05:27:50;;;;;;;;;;;;;;;5.49;100.00;100316.09;5045803;28;19981;-76
2022/11/24 05:30:16;;;;;;;;;;;;;;;5.49;100.00;100321.34;5045664;28;20053;-77
2022/11/24 05:32:41;;;;;;;;;;;;;;;5.49;100.00;100331.84;5043682;28;20026;-76
2022/11/24 05:35:08;;;;;;;;;;;;;;;5.50;100.00;100336.19;5026102;28;20568;-76
2022/11/24 05:37:34;;;;;;;;;;;;;;;5.52;100.00;100341.41;5012842;28;21001;-77
2022/11/24 05:40:02;;;;;;;;;;;;;;;5.54;100.00;100345.69;5045648;28;19935;-77
2022/11/24 05:42:40;;;;;;;;;;;;;;;5.55;100.00;100351.78;5045379;28;19937;-77
2022/11/24 05:45:08;;;;;;;;;;;;;;;5.56;100.00;100361.41;5025210;28;20447;-77
2022/11/24 05:47:33;;;;;;;;;;;;;;;5.53;100.00;100362.38;5045896;28;19981;-77
2022/11/24 05:49:59;;;;;;;;;;;;;;;5.52;100.00;100363.28;5045184;28;19936;-77
2022/11/24 05:52:24;;;;;;;;;;;;;;;5.49;100.00;100368.63;5045382;28;19928;-77
2022/11/24 05:54:49;;;;;;;;;;;;;;;5.42;100.00;100365.34;5045407;28;19932;-77
2022/11/24 05:57:15;;;;;;;;;;;;;;;5.38;100.00;100381.22;5045059;28;19933;-77
2022/11/24 05:59:41;;;;;;;;;;;;;;;5.32;100.00;100389.31;5045231;28;20545;-77
2022/11/24 06:02:07;;;;;;;;;;;;;;;5.27;100.00;100395.53;5016854;28;19976;-77
2022/11/24 06:04:32;;;;;;;;;;;;;;;5.21;100.00;100395.72;5030326;28;20375;-77
2022/11/24 06:06:57;;;;;;;;;;;;;;;5.17;100.00;100399.34;5045514;28;19928;-77
2022/11/24 06:09:23;;;;;;;;;;;;;;;5.12;100.00;100411.75;5044966;28;20363;-77
2022/11/24 06:11:51;;;;;;;;;;;;;;;5.10;100.00;100408.31;5024271;28;19929;-77
2022/11/24 06:14:17;;;;;;;;;;;;;;;5.06;100.00;100419.81;5045478;28;20015;-77
2022/11/24 06:16:42;;;;;;;;;;;;;;;5.01;100.00;100415.53;5044828;28;20038;-77
2022/11/24 06:19:10;;;;;;;;;;;;;;;4.98;100.00;100425.28;5044442;28;20376;-77
2022/11/24 06:21:36;;;;;;;;;;;;;;;4.97;100.00;100423.56;5045209;28;19932;-77
2022/11/24 06:24:01;;;;;;;;;;;;;;;4.95;100.00;100431.47;5031690;28;19963;-77
2022/11/24 06:26:27;;;;;;;;;;;;;;;4.96;100.00;100434.97;5044795;28;19932;-76
2022/11/24 06:28:52;;;;;;;;;;;;;;;4.95;100.00;100439.34;5025875;28;19928;-77
2022/11/24 06:31:17;;;;;;;;;;;;;;;4.93;100.00;100437.66;5044570;28;19933;-77
2022/11/24 06:33:43;;;;;;;;;;;;;;;4.89;100.00;100440.38;5031603;28;19935;-77
2022/11/24 06:36:09;;;;;;;;;;;;;;;4.87;100.00;100449.19;5044790;28;19928;-77
2022/11/24 06:38:34;;;;;;;;;;;;;;;4.84;100.00;100446.63;5017874;28;20027;-77
2022/11/24 06:41:01;;;;;;;;;;;;;;;4.82;100.00;100443.22;5029107;28;19931;-77
2022/11/24 06:43:27;;;;;;;;;;;;;;;4.78;100.00;100449.47;5025637;28;19939;-77
2022/11/24 06:45:52;;;;;;;;;;;;;;;4.73;100.00;100450.44;5059346;28;20233;-77
2022/11/24 06:48:17;;;;;;;;;;;;;;;4.72;100.00;100461.84;5044877;28;20100;-77
2022/11/24 06:50:43;;;;;;;;;;;;;;;4.70;100.00;100455.78;5028749;28;21801;-77
2022/11/24 06:53:08;;;;;;;;;;;;;;;4.69;100.00;100464.53;5029108;28;19928;-77
2022/11/24 06:55:33;;;;;;;;;;;;;;;4.68;100.00;100465.44;5043836;28;19956;-77
2022/11/24 06:57:59;;;;;;;;;;;;;;;4.67;100.00;100471.56;5044381;28;20303;-77
2022/11/24 07:00:24;;;;;;;;;;;;;;;4.65;100.00;100476.00;5044138;28;19983;-77
2022/11/24 07:02:50;;;;;;;;;;;;;;;4.65;100.00;100472.50;5058105;28;20133;-77
2022/11/24 07:05:15;;;;;;;;;;;;;;;4.62;100.00;100476.94;5043405;28;19936;-77
2022/11/24 07:07:41;;;;;;;;;;;;;;;4.61;100.00;100484.84;5044075;28;20544;-79
2022/11/24 07:10:06;;;;;;;;;;;;;;;4.61;100.00;100482.22;5043461;28;20310;-76
2022/11/24 07:12:35;;;;;;;;;;;;;;;4.59;100.00;100484.88;5033731;28;20482;-77
2022/11/24 07:15:00;;;;;;;;;;;;;;;4.59;100.00;100484.88;5025884;28;19929;-77
2022/11/24 07:17:26;;;;;;;;;;;;;;;4.60;100.00;100493.63;5042826;28;19928;-77
2022/11/24 07:19:51;;;;;;;;;;;;;;;4.60;100.00;100499.75;5023616;28;20376;-77
2022/11/24 07:22:16;;;;;;;;;;;;;;;4.62;100.00;100507.53;5042976;28;19936;-77
2022/11/24 07:24:42;;;;;;;;;;;;;;;4.65;100.00;100507.47;5024489;28;19924;-77
2022/11/24 07:27:07;;;;;;;;;;;;;;;4.67;100.00;100510.03;5043655;28;19935;-77
2022/11/24 07:29:32;;;;;;;;;;;;;;;4.72;100.00;100509.03;5033669;28;19935;-77
2022/11/24 07:31:58;;;;;;;;;;;;;;;4.76;100.00;100526.41;5041677;28;19990;-77
2022/11/24 07:34:23;;;;;;;;;;;;;;;4.82;100.00;100524.53;5026297;28;19974;-76
2022/11/24 07:36:49;;;;;;;;;;;;;;;4.87;100.00;100528.78;5040777;28;20022;-76
2022/11/24 07:39:14;;;;;;;;;;;;;;;4.94;100.00;100534.69;5027610;28;19932;-75
2022/11/24 07:41:40;;;;;;;;;;;;;;;4.97;100.00;100539.84;5024719;28;20019;-75
2022/11/24 07:44:05;;;;;;;;;;;;;;;5.02;100.00;100540.59;5042770;28;19967;-75
2022/11/24 07:46:30;;;;;;;;;;;;;;;5.07;100.00;100543.09;5042571;28;19924;-76
2022/11/24 07:48:56;;;;;;;;;;;;;;;5.10;100.00;100552.63;5024672;28;20353;-75
2022/11/24 07:51:21;;;;;;;;;;;;;;;5.14;100.00;100549.03;5043554;28;19935;-76
2022/11/24 07:53:47;;;;;;;;;;;;;;;5.16;100.00;100560.34;5043168;28;19951;-75
2022/11/24 07:56:12;;;;;;;;;;;;;;;5.19;100.00;100565.53;5042901;28;19935;-75
2022/11/24 07:58:38;;;;;;;;;;;;;;;5.21;100.00;100568.97;5043105;28;19990;-75
2022/11/24 08:01:10;;;;;;;;;;;;;;;5.24;100.00;100578.53;5025837;28;19924;-75
2022/11/24 08:03:36;;;;;;;;;;;;;;;5.26;100.00;100588.09;5043636;28;19987;-75
2022/11/24 08:06:01;;;;;;;;;;;;;;;5.29;100.00;100592.38;5025424;28;20921;-76
2022/11/24 08:08:32;;;;;;;;;;;;;;;5.33;100.00;100595.78;5042730;28;19929;-76
2022/11/24 08:10:57;;;;;;;;;;;;;;;5.36;100.00;100595.69;5046550;28;20023;-77
2022/11/24 08:13:23;;;;;;;;;;;;;;;5.41;100.00;100596.44;5043235;28;19929;-76
2022/11/24 08:15:48;;;;;;;;;;;;;;;5.45;100.00;100603.31;5042533;28;19936;-75
2022/11/24 08:18:13;;;;;;;;;;;;;;;5.51;100.00;100607.53;5047594;28;19929;-76
2022/11/24 08:20:39;;;;;;;;;;;;;;;5.57;100.00;100608.22;5046664;28;20072;-75
2022/11/24 08:23:05;;;;;;;;;;;;;;;5.64;100.00;100621.19;5044181;28;19928;-75
2022/11/24 08:25:31;;;;;;;;;;;;;;;5.70;100.00;100619.25;5044719;28;19924;-76
2022/11/24 08:27:59;;;;;;;;;;;;;;;5.77;100.00;100622.53;5043691;28;19932;-75
2022/11/24 08:30:25;;;;;;;;;;;;;;;5.84;100.00;100621.47;4997676;28;19928;-76
2022/11/24 08:32:51;;;;;;;;;;;;;;;5.90;100.00;100615.19;5012689;28;20425;-75
2022/11/24 08:35:16;;;;;;;;;;;;;;;5.93;100.00;100624.72;5026568;28;19998;-75
2022/11/24 08:37:41;;;;;;;;;;;;;;;5.95;100.00;100622.94;5048569;28;20507;-75
2022/11/24 08:40:07;;;;;;;;;;;;;;;5.95;100.00;100622.94;5044070;28;19932;-76
2022/11/24 08:42:33;;;;;;;;;;;;;;;5.96;100.00;100635.16;5043774;28;19964;-75
2022/11/24 08:44:58;;;;;;;;;;;;;;;5.96;100.00;100649.16;5040619;28;20348;-76
2022/11/24 08:47:23;;;;;;;;;;;;;;;5.96;100.00;100648.28;5043727;28;20015;-75
2022/11/24 08:49:49;;;;;;;;;;;;;;;5.96;100.00;100650.94;5043808;28;20407;-75
2022/11/24 08:52:14;;;;;;;;;;;;;;;5.96;100.00;100650.94;5043442;28;19937;-76
2022/11/24 08:54:40;;;;;;;;;;;;;;;5.96;100.00;100649.16;5026991;28;20021;-76
2022/11/24 08:57:05;;;;;;;;;;;;;;;5.98;100.00;100659.63;5041492;28;19933;-75
2022/11/24 08:59:30;;;;;;;;;;;;;;;5.99;100.00;100663.97;5025421;28;20126;-76
2022/11/24 09:01:56;;;;;;;;;;;;;;;6.01;100.00;100663.91;5040832;28;20035;-75
2022/11/24 09:04:21;;;;;;;;;;;;;;;5.99;100.00;100663.97;5042393;28;20019;-75
2022/11/24 09:06:47;;;;;;;;;;;;;;;5.98;100.00;100662.25;5032176;28;20508;-75
2022/11/24 09:09:12;;;;;;;;;;;;;;;5.97;100.00;100671.03;5043729;28;19933;-75
2022/11/24 09:11:37;;;;;;;;;;;;;;;5.97;100.00;100669.28;5021598;28;19977;-75
2022/11/24 09:14:03;;;;;;;;;;;;;;;5.98;100.00;100670.13;5025805;28;20450;-75
2022/11/24 09:16:28;;;;;;;;;;;;;;;6.00;100.00;100672.72;4992404;28;20425;-80
2022/11/24 09:18:55;;;;;;;;;;;;;;;6.01;100.00;100674.44;5039467;28;19935;-76
2022/11/24 09:21:20;;;;;;;;;;;;;;;6.03;100.00;100686.66;5023588;28;19971;-75
2022/11/24 09:23:47;;;;;;;;;;;;;;;6.04;100.00;100690.16;5019992;28;20023;-76
2022/11/24 09:26:14;;;;;;;;;;;;;;;6.06;100.00;100697.06;5035605;28;20391;-76
2022/11/24 09:28:39;;;;;;;;;;;;;;;6.09;100.00;100694.38;5033325;28;19928;-76
2022/11/24 09:31:06;;;;;;;;;;;;;;;6.11;100.00;100696.97;5035671;28;19982;-76
2022/11/24 09:33:31;;;;;;;;;;;;;;;6.14;100.00;100706.53;5038062;28;20272;-76
2022/11/24 09:35:57;;;;;;;;;;;;;;;6.16;100.00;100715.22;5020537;28;19978;-76
2022/11/24 09:38:23;;;;;;;;;;;;;;;6.18;100.00;100714.28;5019751;28;20523;-76
2022/11/24 09:40:48;;;;;;;;;;;;;;;6.19;100.00;100721.25;5037287;28;20267;-75
2022/11/24 09:43:23;;;;;;;;;;;;;;;6.23;100.00;100729.91;5036964;28;19924;-76
2022/11/24 09:45:52;;;;;;;;;;;;;;;6.27;100.00;100728.94;5035762;28;20677;-76
2022/11/24 09:48:21;;;;;;;;;;;;;;;6.29;100.00;100734.13;5037918;28;19925;-75
2022/11/24 09:50:47;;;;;;;;;;;;;;;6.32;100.00;100734.91;5036700;28;20074;-75
2022/11/24 09:53:13;;;;;;;;;;;;;;;6.39;100.00;100746.09;5021225;28;20280;-76
2022/11/24 09:55:45;;;;;;;;;;;;;;;6.41;100.00;100736.41;5028488;28;19921;-75
2022/11/24 09:58:17;;;;;;;;;;;;;;;6.48;100.00;100753.72;5020429;28;20879;-75
2022/11/24 10:00:42;;;;;;;;;;;;;;;6.57;100.00;100757.84;5032852;28;20478;-75
2022/11/24 10:03:13;;;;;;;;;;;;;;;6.64;100.00;100759.38;5019544;28;19931;-76
2022/11/24 10:05:39;;;;;;;;;;;;;;;6.69;100.00;100758.41;5039079;28;19929;-76
2022/11/24 10:08:16;;;;;;;;;;;;;;;6.70;100.00;100762.75;5035166;28;20448;-76
2022/11/24 10:10:55;;;;;;;;;;;;;;;6.68;100.00;100767.16;5040866;28;20027;-75
2022/11/24 10:13:27;;;;;;;;;;;;;;;6.65;100.00;100760.25;5006538;28;20607;-75
2022/11/24 10:15:55;;;;;;;;;;;;;;;6.63;100.00;100762.94;5003343;28;20068;-75
2022/11/24 10:18:32;;;;;;;;;;;;;;;6.64;100.00;100769.91;5051003;28;20665;-75
2022/11/24 10:21:16;;;;;;;;;;;;;;;6.64;100.00;100772.53;5027426;28;20569;-75
2022/11/24 10:24:00;;;;;;;;;;;;;;;6.64;100.00;100780.44;5038884;28;19928;-76
2022/11/24 10:26:36;;;;;;;;;;;;;;;6.65;100.00;100784.78;5039687;28;19928;-75
2022/11/24 10:29:09;;;;;;;;;;;;;;;6.66;100.00;100783.03;5040080;28;19925;-76
2022/11/24 10:31:35;;;;;;;;;;;;;;;6.68;100.00;100783.81;5023218;28;21483;-76
2022/11/24 10:34:19;;;;;;;;;;;;;;;6.71;100.00;100786.34;5029449;28;20015;-76
2022/11/24 10:36:54;;;;;;;;;;;;;;;6.76;100.00;100788.88;5036610;28;19929;-76
2022/11/24 10:39:29;;;;;;;;;;;;;;;6.77;100.00;100791.44;5023449;28;20007;-76
2022/11/24 10:42:17;;;;;;;;;;;;;;;6.80;100.00;100790.47;5040383;28;19932;-76
2022/11/24 10:44:43;;;;;;;;;;;;;;;6.84;100.00;100785.97;5036840;28;20358;-76
2022/11/24 10:47:26;;;;;;;;;;;;;;;6.84;100.00;100792.13;5037378;28;19928;-76
2022/11/24 10:50:04;;;;;;;;;;;;;;;6.85;100.00;100799.09;5041700;28;20552;-76
2022/11/24 10:52:33;;;;;;;;;;;;;;;6.88;100.00;100799.03;5037143;28;20417;-76
2022/11/24 10:55:00;;;;;;;;;;;;;;;6.93;100.00;100801.50;5020371;28;19972;-76
2022/11/24 10:57:35;;;;;;;;;;;;;;;6.97;100.00;100812.81;5010955;28;20426;-76
2022/11/24 11:00:02;;;;;;;;;;;;;;;7.00;100.00;100807.44;5040262;28;19936;-76
2022/11/24 11:02:29;;;;;;;;;;;;;;;7.02;100.00;100810.88;5041349;28;19927;-77
2022/11/24 11:04:54;;;;;;;;;;;;;;;7.04;100.00;100807.28;5023566;28;20433;-76
2022/11/24 11:07:21;;;;;;;;;;;;;;;7.05;100.00;100810.78;5007336;28;19932;-76
2022/11/24 11:09:47;;;;;;;;;;;;;;;7.05;100.00;100816.06;5023695;28;19924;-76
2022/11/24 11:12:20;;;;;;;;;;;;;;;7.05;100.00;100813.41;5022060;28;19978;-75
2022/11/24 11:14:47;;;;;;;;;;;;;;;7.10;100.00;100822.03;5008132;28;20307;-75
2022/11/24 11:17:28;;;;;;;;;;;;;;;7.13;100.00;100815.81;5037590;28;19931;-75
2022/11/24 11:19:55;;;;;;;;;;;;;;;7.15;100.00;100825.38;5020555;28;20365;-75
2022/11/24 11:22:28;;;;;;;;;;;;;;;7.17;100.00;100828.84;5007169;28;19925;-75
2022/11/24 11:25:03;;;;;;;;;;;;;;;7.18;100.00;100830.56;5022353;28;19921;-75
2022/11/24 11:27:30;;;;;;;;;;;;;;;7.19;100.00;100834.91;5052833;28;19936;-75
2022/11/24 11:30:10;;;;;;;;;;;;;;;7.21;100.00;100837.50;5037639;28;19925;-75
2022/11/24 11:32:35;;;;;;;;;;;;;;;7.24;100.00;100831.28;5022916;28;20649;-75
2022/11/24 11:35:01;;;;;;;;;;;;;;;7.25;100.00;100827.72;5021491;28;19964;-75
2022/11/24 11:37:27;;;;;;;;;;;;;;;7.26;100.00;100840.00;5038715;28;19979;-76
2022/11/24 11:39:53;;;;;;;;;;;;;;;7.28;100.00;100833.75;5019900;28;20311;-76
2022/11/24 11:42:25;;;;;;;;;;;;;;;7.32;100.00;100837.16;5018898;28;20496;-75
2022/11/24 11:44:58;;;;;;;;;;;;;;;7.33;100.00;100833.63;5039732;28;20056;-75
2022/11/24 11:47:25;;;;;;;;;;;;;;;7.35;100.00;100837.06;5020564;28;20017;-75
2022/11/24 11:49:51;;;;;;;;;;;;;;;7.37;100.00;100843.16;5023590;28;19924;-76
2022/11/24 11:52:17;;;;;;;;;;;;;;;7.40;100.00;100850.94;5022279;28;20546;-75
2022/11/24 11:54:58;;;;;;;;;;;;;;;7.45;100.00;100845.53;5041955;28;19929;-75
2022/11/24 11:57:26;;;;;;;;;;;;;;;7.46;100.00;100848.13;5038950;28;19969;-77
2022/11/24 12:00:10;;;;;;;;;;;;;;;7.49;100.00;100841.88;5041469;28;20070;-75
2022/11/24 12:02:42;;;;;;;;;;;;;;;7.51;100.00;100841.84;5023562;28;19929;-75
2022/11/24 12:05:13;;;;;;;;;;;;;;;7.53;100.00;100848.78;5038709;28;20398;-75
2022/11/24 12:07:51;;;;;;;;;;;;;;;7.56;100.00;100843.41;5025784;28;20345;-75
2022/11/24 12:10:27;;;;;;;;;;;;;;;7.60;100.00;100849.44;5036624;28;19929;-75
2022/11/24 12:13:02;;;;;;;;;;;;;;;7.61;100.00;100861.69;5025436;28;20023;-76
2022/11/24 12:15:37;;;;;;;;;;;;;;;7.63;100.00;100859.88;5025852;28;20446;-75
2022/11/24 12:18:03;;;;;;;;;;;;;;;7.64;100.00;100851.06;5055361;28;19928;-75
2022/11/24 12:20:31;;;;;;;;;;;;;;;7.68;100.00;100857.09;5040562;28;19932;-75
2022/11/24 12:23:00;;;;;;;;;;;;;;;7.70;100.00;100861.41;5037886;28;19936;-75
2022/11/24 12:25:27;;;;;;;;;;;;;;;7.72;100.00;100856.94;5039033;28;22785;-75
2022/11/24 12:28:05;;;;;;;;;;;;;;;7.76;100.00;100852.44;5024155;28;19959;-75
2022/11/24 12:30:35;;;;;;;;;;;;;;;7.81;100.00;100863.69;5042056;28;20359;-75
2022/11/24 12:33:01;;;;;;;;;;;;;;;7.84;100.00;100863.56;5040916;28;19928;-75
2022/11/24 12:35:40;;;;;;;;;;;;;;;7.86;100.00;100848.56;5040663;28;19976;-75
2022/11/24 12:38:05;;;;;;;;;;;;;;;7.89;100.00;100855.50;5038464;28;19928;-76